EJA409 KPDK-KTEB
Flight info
| Callsign | EJA409 |
|---|---|
| Flight time | N/A |
| Altitude | 45000 |
| Route | EAONE BURGG Q22 UMBRE SWNGR JAIKE4 |
| Aircraft | C68A/M-SDFGHRWY/SB1 |
Departure
| Time | 2026-04-26 08:58 |
|---|---|
| Airport | DeKalb Peachtree Airport (KPDK) |
Arrival
| Time | N/A |
|---|---|
| Airport | Teterboro Airport (KTEB) |
| Time | Latitude | Longitude | Altitude | Speed | Heading |
|---|---|---|---|---|---|
| 2026-04-26 08:43 | 33.88094 | -84.30265 | 992 ft | 0 kts | 89° |
| 2026-04-26 08:52 | 33.88094 | -84.30251 | 987 ft | 4 kts | 91° |
| 2026-04-26 08:52 | 33.88079 | -84.30234 | 998 ft | 1 kts | 171° |
| 2026-04-26 08:53 | 33.88049 | -84.30249 | 992 ft | 8 kts | 196° |
| 2026-04-26 08:53 | 33.88008 | -84.30215 | 996 ft | 8 kts | 111° |
| 2026-04-26 08:53 | 33.87977 | -84.30165 | 992 ft | 7 kts | 180° |
| 2026-04-26 08:53 | 33.87921 | -84.30189 | 992 ft | 10 kts | 200° |
| 2026-04-26 08:54 | 33.87848 | -84.30221 | 992 ft | 12 kts | 200° |
| 2026-04-26 08:54 | 33.87757 | -84.30262 | 991 ft | 16 kts | 200° |
| 2026-04-26 08:54 | 33.87649 | -84.30311 | 992 ft | 17 kts | 200° |
| 2026-04-26 08:54 | 33.87536 | -84.30361 | 998 ft | 18 kts | 200° |
| 2026-04-26 08:55 | 33.87410 | -84.30418 | 993 ft | 20 kts | 200° |
| 2026-04-26 08:55 | 33.87274 | -84.30478 | 995 ft | 21 kts | 200° |
| 2026-04-26 08:55 | 33.87137 | -84.30541 | 993 ft | 21 kts | 201° |
| 2026-04-26 08:55 | 33.87006 | -84.30599 | 993 ft | 16 kts | 200° |
| 2026-04-26 08:56 | 33.86933 | -84.30600 | 994 ft | 8 kts | 119° |
| 2026-04-26 08:56 | 33.86919 | -84.30557 | 995 ft | 10 kts | 111° |
| 2026-04-26 08:56 | 33.86878 | -84.30435 | 997 ft | 12 kts | 109° |
| 2026-04-26 08:56 | 33.86894 | -84.30384 | 995 ft | 2 kts | 22° |
| 2026-04-26 08:57 | 33.86935 | -84.30365 | 994 ft | 36 kts | 20° |
| 2026-04-26 08:57 | 33.87487 | -84.30119 | 999 ft | 131 kts | 20° |
| 2026-04-26 08:58 | 33.88547 | -84.29639 | 1458 ft | 186 kts | 20° |
| 2026-04-26 08:58 | 33.89900 | -84.28996 | 2244 ft | 226 kts | 21° |
| 2026-04-26 08:58 | 33.91379 | -84.28250 | 3642 ft | 235 kts | 21° |
| 2026-04-26 08:58 | 33.92903 | -84.27493 | 5121 ft | 244 kts | 21° |
| 2026-04-26 08:59 | 33.94501 | -84.26708 | 6629 ft | 250 kts | 21° |
| 2026-04-26 08:59 | 33.96112 | -84.25902 | 8104 ft | 251 kts | 21° |
| 2026-04-26 08:59 | 33.97721 | -84.25057 | 9611 ft | 254 kts | 21° |
| 2026-04-26 08:59 | 33.99366 | -84.24201 | 10856 ft | 260 kts | 20° |
| 2026-04-26 09:00 | 34.00465 | -84.23610 | 11703 ft | 262 kts | 22° |
| 2026-04-26 09:00 | 34.02084 | -84.22482 | 12968 ft | 269 kts | 29° |
| 2026-04-26 09:00 | 34.03632 | -84.21237 | 14118 ft | 273 kts | 29° |
| 2026-04-26 09:00 | 34.05158 | -84.19976 | 15097 ft | 280 kts | 30° |
| 2026-04-26 09:01 | 34.06769 | -84.18602 | 16088 ft | 286 kts | 30° |
| 2026-04-26 09:01 | 34.08415 | -84.17192 | 17094 ft | 293 kts | 30° |
| 2026-04-26 09:01 | 34.10084 | -84.15741 | 18073 ft | 299 kts | 30° |
| 2026-04-26 09:01 | 34.11786 | -84.14242 | 18936 ft | 305 kts | 30° |
| 2026-04-26 09:02 | 34.13378 | -84.12490 | 19773 ft | 319 kts | 49° |
| 2026-04-26 09:02 | 34.14473 | -84.10098 | 20577 ft | 330 kts | 59° |
| 2026-04-26 09:02 | 34.15476 | -84.07586 | 21491 ft | 335 kts | 59° |
| 2026-04-26 09:02 | 34.16528 | -84.05054 | 22394 ft | 340 kts | 58° |
| 2026-04-26 09:03 | 34.17610 | -84.02526 | 23278 ft | 346 kts | 58° |
| 2026-04-26 09:03 | 34.18712 | -83.99922 | 24050 ft | 351 kts | 59° |
| 2026-04-26 09:03 | 34.19835 | -83.97239 | 24844 ft | 354 kts | 59° |
| 2026-04-26 09:03 | 34.20940 | -83.94608 | 25599 ft | 357 kts | 59° |
| 2026-04-26 09:04 | 34.22072 | -83.91919 | 26356 ft | 361 kts | 59° |
| 2026-04-26 09:04 | 34.23214 | -83.89205 | 27083 ft | 364 kts | 59° |
| 2026-04-26 09:04 | 34.24365 | -83.86457 | 27799 ft | 368 kts | 59° |
| 2026-04-26 09:04 | 34.25528 | -83.83684 | 28508 ft | 372 kts | 59° |
| 2026-04-26 09:05 | 34.26705 | -83.80876 | 29201 ft | 375 kts | 59° |
| 2026-04-26 09:05 | 34.27886 | -83.78053 | 29880 ft | 379 kts | 59° |
| 2026-04-26 09:05 | 34.29082 | -83.75193 | 30458 ft | 383 kts | 59° |
| 2026-04-26 09:05 | 34.30294 | -83.72296 | 30986 ft | 387 kts | 58° |
| 2026-04-26 09:06 | 34.31512 | -83.69379 | 31499 ft | 391 kts | 58° |
| 2026-04-26 09:06 | 34.32745 | -83.66422 | 32012 ft | 395 kts | 58° |
| 2026-04-26 09:06 | 34.33990 | -83.63437 | 32503 ft | 399 kts | 57° |
| 2026-04-26 09:06 | 34.35246 | -83.60422 | 33003 ft | 403 kts | 57° |
| 2026-04-26 09:07 | 34.36509 | -83.57384 | 33489 ft | 406 kts | 56° |
| 2026-04-26 09:07 | 34.37771 | -83.54349 | 33959 ft | 410 kts | 56° |
| 2026-04-26 09:07 | 34.39059 | -83.51250 | 34361 ft | 414 kts | 56° |
| 2026-04-26 09:07 | 34.40355 | -83.48123 | 34748 ft | 417 kts | 57° |
| 2026-04-26 09:08 | 34.41664 | -83.44967 | 35126 ft | 421 kts | 57° |
| 2026-04-26 09:08 | 34.42984 | -83.41780 | 35493 ft | 425 kts | 57° |
| 2026-04-26 09:08 | 34.44313 | -83.38568 | 35851 ft | 428 kts | 57° |
| 2026-04-26 09:08 | 34.45653 | -83.35324 | 36215 ft | 431 kts | 57° |
| 2026-04-26 09:09 | 34.47001 | -83.32062 | 36557 ft | 435 kts | 57° |
| 2026-04-26 09:09 | 34.48357 | -83.28777 | 36898 ft | 438 kts | 58° |
| 2026-04-26 09:09 | 34.49724 | -83.25459 | 37231 ft | 441 kts | 58° |
| 2026-04-26 09:09 | 34.51101 | -83.22114 | 37554 ft | 445 kts | 58° |
| 2026-04-26 09:10 | 34.52484 | -83.18753 | 37875 ft | 448 kts | 58° |
| 2026-04-26 09:10 | 34.53879 | -83.15358 | 38196 ft | 451 kts | 58° |
| 2026-04-26 09:10 | 34.55281 | -83.11944 | 38503 ft | 453 kts | 58° |
| 2026-04-26 09:10 | 34.56689 | -83.08510 | 38761 ft | 456 kts | 59° |
| 2026-04-26 09:11 | 34.58102 | -83.05059 | 39011 ft | 458 kts | 59° |
| 2026-04-26 09:11 | 34.59522 | -83.01592 | 39276 ft | 459 kts | 59° |
| 2026-04-26 09:11 | 34.60930 | -82.98149 | 39525 ft | 461 kts | 59° |
| 2026-04-26 09:11 | 34.62358 | -82.94650 | 39768 ft | 463 kts | 59° |
| 2026-04-26 09:12 | 34.63792 | -82.91136 | 40013 ft | 465 kts | 59° |
| 2026-04-26 09:12 | 34.65230 | -82.87610 | 40246 ft | 467 kts | 59° |
| 2026-04-26 09:12 | 34.66675 | -82.84060 | 40471 ft | 469 kts | 59° |
| 2026-04-26 09:12 | 34.68118 | -82.80509 | 40788 ft | 468 kts | 59° |
| 2026-04-26 09:13 | 34.69563 | -82.76953 | 40933 ft | 472 kts | 60° |
| 2026-04-26 09:13 | 34.72484 | -82.69752 | 40940 ft | 475 kts | 60° |
| 2026-04-26 09:14 | 34.75378 | -82.62600 | 40938 ft | 468 kts | 60° |
| 2026-04-26 09:14 | 34.78124 | -82.55806 | 40934 ft | 468 kts | 60° |
| 2026-04-26 09:15 | 34.80981 | -82.48718 | 40940 ft | 471 kts | 60° |
| 2026-04-26 09:15 | 34.83871 | -82.41532 | 40956 ft | 473 kts | 60° |
| 2026-04-26 09:16 | 34.86755 | -82.34345 | 40961 ft | 471 kts | 60° |
| 2026-04-26 09:16 | 34.89627 | -82.27173 | 40951 ft | 469 kts | 60° |
| 2026-04-26 09:17 | 34.92465 | -82.20072 | 40954 ft | 468 kts | 60° |
| 2026-04-26 09:17 | 34.95311 | -82.12931 | 40952 ft | 468 kts | 60° |
| 2026-04-26 09:18 | 34.98157 | -82.05784 | 40951 ft | 470 kts | 61° |
| 2026-04-26 09:18 | 35.01015 | -81.98585 | 40951 ft | 471 kts | 61° |
| 2026-04-26 09:19 | 35.04095 | -81.91561 | 40946 ft | 468 kts | 52° |
| 2026-04-26 09:19 | 35.07997 | -81.85226 | 40938 ft | 467 kts | 49° |
| 2026-04-26 09:20 | 35.11900 | -81.78903 | 40942 ft | 465 kts | 49° |
| 2026-04-26 09:20 | 35.15801 | -81.72616 | 40954 ft | 463 kts | 49° |
| 2026-04-26 09:21 | 35.19650 | -81.66376 | 40959 ft | 462 kts | 49° |
| 2026-04-26 09:21 | 35.23554 | -81.60050 | 40964 ft | 463 kts | 49° |
| 2026-04-26 09:22 | 35.27455 | -81.53711 | 40958 ft | 465 kts | 49° |
| 2026-04-26 09:22 | 35.31352 | -81.47370 | 40957 ft | 467 kts | 49° |
| 2026-04-26 09:23 | 35.35228 | -81.41046 | 40943 ft | 466 kts | 50° |
| 2026-04-26 09:23 | 35.39116 | -81.34697 | 40956 ft | 465 kts | 50° |
| 2026-04-26 09:24 | 35.42994 | -81.28351 | 40967 ft | 464 kts | 50° |
| 2026-04-26 09:24 | 35.46856 | -81.22019 | 40967 ft | 463 kts | 50° |
| 2026-04-26 09:25 | 35.50718 | -81.15677 | 40965 ft | 465 kts | 50° |
| 2026-04-26 09:25 | 35.54598 | -81.09292 | 40961 ft | 467 kts | 50° |
| 2026-04-26 09:26 | 35.58489 | -81.02878 | 40957 ft | 469 kts | 50° |
| 2026-04-26 09:26 | 35.62369 | -80.96468 | 40965 ft | 467 kts | 50° |
| 2026-04-26 09:27 | 35.66247 | -80.90054 | 40966 ft | 465 kts | 50° |
| 2026-04-26 09:27 | 35.70077 | -80.83702 | 40964 ft | 464 kts | 50° |
| 2026-04-26 09:28 | 35.73919 | -80.77324 | 40961 ft | 465 kts | 50° |
| 2026-04-26 09:28 | 35.77780 | -80.70900 | 40953 ft | 468 kts | 50° |
| 2026-04-26 09:29 | 35.81656 | -80.64439 | 40950 ft | 469 kts | 50° |
| 2026-04-26 09:29 | 35.85527 | -80.57973 | 40942 ft | 468 kts | 50° |
| 2026-04-26 09:30 | 35.89382 | -80.51524 | 40942 ft | 466 kts | 50° |
| 2026-04-26 09:30 | 35.93216 | -80.45098 | 40950 ft | 464 kts | 51° |
| 2026-04-26 09:31 | 35.96958 | -80.38815 | 40944 ft | 466 kts | 51° |
| 2026-04-26 09:31 | 36.00806 | -80.32359 | 40944 ft | 467 kts | 51° |
| 2026-04-26 09:32 | 36.04670 | -80.25870 | 40931 ft | 469 kts | 51° |
| 2026-04-26 09:32 | 36.08529 | -80.19371 | 40944 ft | 468 kts | 51° |
| 2026-04-26 09:33 | 36.12355 | -80.12921 | 40948 ft | 467 kts | 51° |
| 2026-04-26 09:33 | 36.16180 | -80.06458 | 40957 ft | 465 kts | 51° |
| 2026-04-26 09:34 | 36.20007 | -79.99983 | 40958 ft | 466 kts | 51° |
| 2026-04-26 09:34 | 36.23837 | -79.93487 | 40953 ft | 468 kts | 51° |
| 2026-04-26 09:35 | 36.27689 | -79.86945 | 40954 ft | 470 kts | 51° |
| 2026-04-26 09:35 | 36.31534 | -79.80399 | 40963 ft | 469 kts | 51° |
| 2026-04-26 09:36 | 36.35344 | -79.73904 | 40965 ft | 468 kts | 51° |
| 2026-04-26 09:36 | 36.39161 | -79.67382 | 40958 ft | 467 kts | 51° |
| 2026-04-26 09:37 | 36.42968 | -79.60865 | 40949 ft | 466 kts | 51° |
| 2026-04-26 09:37 | 36.46775 | -79.54336 | 40946 ft | 467 kts | 51° |
| 2026-04-26 09:38 | 36.50594 | -79.47776 | 40954 ft | 469 kts | 51° |
| 2026-04-26 09:38 | 36.54421 | -79.41186 | 40961 ft | 471 kts | 52° |
| 2026-04-26 09:39 | 36.58233 | -79.34609 | 40958 ft | 470 kts | 52° |
| 2026-04-26 09:39 | 36.62046 | -79.28021 | 40959 ft | 468 kts | 52° |
| 2026-04-26 09:40 | 36.65843 | -79.21444 | 40963 ft | 467 kts | 52° |
| 2026-04-26 09:40 | 36.69634 | -79.14868 | 40956 ft | 466 kts | 52° |
| 2026-04-26 09:41 | 36.73413 | -79.08297 | 40950 ft | 469 kts | 52° |
| 2026-04-26 09:41 | 36.76578 | -79.02787 | 40945 ft | 470 kts | 52° |
| 2026-04-26 09:42 | 36.80386 | -78.96144 | 40943 ft | 472 kts | 52° |
| 2026-04-26 09:42 | 36.84192 | -78.89482 | 40954 ft | 470 kts | 52° |
| 2026-04-26 09:43 | 36.87953 | -78.82826 | 40963 ft | 468 kts | 52° |
| 2026-04-26 09:43 | 36.91711 | -78.76194 | 40968 ft | 467 kts | 52° |
| 2026-04-26 09:44 | 36.95463 | -78.69544 | 40977 ft | 468 kts | 52° |
| 2026-04-26 09:44 | 36.99203 | -78.62912 | 40977 ft | 470 kts | 52° |
| 2026-04-26 09:45 | 37.02971 | -78.56208 | 40980 ft | 472 kts | 52° |
| 2026-04-26 09:45 | 37.06755 | -78.49469 | 40978 ft | 472 kts | 52° |
| 2026-04-26 09:46 | 37.10516 | -78.42754 | 40991 ft | 470 kts | 52° |
| 2026-04-26 09:46 | 37.14257 | -78.36063 | 41000 ft | 468 kts | 52° |
| 2026-04-26 09:47 | 37.17986 | -78.29379 | 41002 ft | 467 kts | 52° |
| 2026-04-26 09:47 | 37.21469 | -78.22468 | 41003 ft | 471 kts | 59° |
| 2026-04-26 09:48 | 37.24664 | -78.15317 | 40993 ft | 473 kts | 58° |
| 2026-04-26 09:48 | 37.27868 | -78.08079 | 40991 ft | 475 kts | 59° |
| 2026-04-26 09:49 | 37.31067 | -78.00855 | 40991 ft | 472 kts | 59° |
| 2026-04-26 09:49 | 37.34258 | -77.93631 | 40995 ft | 470 kts | 59° |
| 2026-04-26 09:50 | 37.37427 | -77.86440 | 41011 ft | 470 kts | 59° |
| 2026-04-26 09:50 | 37.40602 | -77.79221 | 41020 ft | 472 kts | 59° |
| 2026-04-26 09:51 | 37.43761 | -77.72019 | 41031 ft | 473 kts | 59° |
| 2026-04-26 09:51 | 37.46943 | -77.64749 | 41034 ft | 475 kts | 59° |
| 2026-04-26 09:52 | 37.50124 | -77.57465 | 41035 ft | 474 kts | 59° |
| 2026-04-26 09:52 | 37.54879 | -77.46547 | 41008 ft | 472 kts | 59° |
| 2026-04-26 09:53 | 37.58620 | -77.39840 | 41007 ft | 465 kts | 44° |
| 2026-04-26 09:53 | 37.63468 | -77.34613 | 41033 ft | 460 kts | 29° |
| 2026-04-26 09:54 | 37.69141 | -77.31061 | 41033 ft | 452 kts | 14° |
| 2026-04-26 09:54 | 37.75211 | -77.29288 | 41032 ft | 447 kts | 6° |
| 2026-04-26 09:55 | 37.81152 | -77.26736 | 41033 ft | 456 kts | 21° |
| 2026-04-26 09:55 | 37.86762 | -77.22937 | 41035 ft | 456 kts | 23° |
| 2026-04-26 09:56 | 37.92342 | -77.19147 | 41035 ft | 455 kts | 24° |
| 2026-04-26 09:56 | 37.97908 | -77.15329 | 41046 ft | 454 kts | 24° |
| 2026-04-26 09:57 | 38.03476 | -77.11523 | 41040 ft | 454 kts | 24° |
| 2026-04-26 09:57 | 38.09035 | -77.07705 | 41052 ft | 456 kts | 24° |
| 2026-04-26 09:58 | 38.14627 | -77.03863 | 41054 ft | 457 kts | 24° |
| 2026-04-26 09:58 | 38.20180 | -76.99987 | 41058 ft | 460 kts | 27° |
| 2026-04-26 09:59 | 38.25312 | -76.94964 | 41059 ft | 463 kts | 35° |
| 2026-04-26 09:59 | 38.30285 | -76.89793 | 41058 ft | 461 kts | 35° |
| 2026-04-26 10:00 | 38.35206 | -76.84632 | 41059 ft | 460 kts | 35° |
| 2026-04-26 10:00 | 38.40153 | -76.79452 | 41057 ft | 459 kts | 35° |
| 2026-04-26 10:01 | 38.44997 | -76.74365 | 41061 ft | 460 kts | 35° |
| 2026-04-26 10:01 | 38.49946 | -76.69158 | 41058 ft | 462 kts | 35° |
| 2026-04-26 10:02 | 38.54920 | -76.63916 | 41061 ft | 464 kts | 35° |
| 2026-04-26 10:02 | 38.59896 | -76.58653 | 41062 ft | 464 kts | 36° |
| 2026-04-26 10:03 | 38.64884 | -76.53408 | 41062 ft | 463 kts | 34° |
| 2026-04-26 10:03 | 38.69802 | -76.48165 | 41065 ft | 462 kts | 36° |
| 2026-04-26 10:04 | 38.75081 | -76.43635 | 41069 ft | 452 kts | 21° |
| 2026-04-26 10:04 | 38.80837 | -76.40582 | 41069 ft | 447 kts | 17° |
| 2026-04-26 10:05 | 38.86602 | -76.37602 | 41069 ft | 446 kts | 17° |
| 2026-04-26 10:05 | 38.92385 | -76.34642 | 41076 ft | 447 kts | 17° |
| 2026-04-26 10:06 | 38.98168 | -76.31659 | 41072 ft | 448 kts | 17° |
| 2026-04-26 10:06 | 39.03959 | -76.28675 | 41076 ft | 448 kts | 17° |
| 2026-04-26 10:07 | 39.09759 | -76.25677 | 41090 ft | 449 kts | 17° |
| 2026-04-26 10:07 | 39.15372 | -76.22082 | 41097 ft | 455 kts | 29° |
| 2026-04-26 10:08 | 39.20289 | -76.16860 | 41095 ft | 459 kts | 38° |
| 2026-04-26 10:08 | 39.25019 | -76.11349 | 41094 ft | 457 kts | 38° |
| 2026-04-26 10:09 | 39.29946 | -76.06249 | 41088 ft | 452 kts | 31° |
| 2026-04-26 10:09 | 39.35033 | -76.01423 | 41085 ft | 454 kts | 32° |
| 2026-04-26 10:10 | 39.39294 | -75.97441 | 41079 ft | 455 kts | 31° |
| 2026-04-26 10:11 | 39.42789 | -75.94153 | 41074 ft | 455 kts | 32° |
| 2026-04-26 10:11 | 39.47388 | -75.89804 | 41083 ft | 454 kts | 31° |
| 2026-04-26 10:12 | 33.88094 | -84.30265 | 989 ft | 0 kts | 89° |